Terminal Aerodrome Forecast
Issued by NWS

Home | Current Version | Previous Version | Text Only | Print | Product List | Glossary On
Versions: 1 2 3 4 5 6 7 8 9 10 11 12 13 14 15 16 17 18 19 20 21 22
000
FTUS43 KICT 240535
TAFCNU
TAF
KCNU 240535Z 2406/2506 31015G22KT P6SM BKN100
     FM240900 29014KT P6SM SCT150
     FM241500 30016G23KT P6SM SCT050
     FM242300 30008KT P6SM SKC=

USA.gov is the U.S. government's official web portal to all federal, state and local government web resources and services.